sensor_id;sensor_type;location;lat;lon;timestamp;pressure;altitude;pressure_sealevel;temperature;humidity
13068;BME280;6600;51.362;6.686;2023-07-20T00:02:14;100946.97;;;18.32;94.18
13068;BME280;6600;51.362;6.686;2023-07-20T00:04:40;100944.75;;;18.24;94.86
13068;BME280;6600;51.362;6.686;2023-07-20T00:07:05;100950.72;;;18.26;94.50
13068;BME280;6600;51.362;6.686;2023-07-20T00:09:30;100948.81;;;18.26;95.01
13068;BME280;6600;51.362;6.686;2023-07-20T00:11:56;100948.38;;;18.39;94.92
13068;BME280;6600;51.362;6.686;2023-07-20T00:14:21;100948.31;;;18.29;94.81
13068;BME280;6600;51.362;6.686;2023-07-20T00:16:49;100942.34;;;18.27;94.49
13068;BME280;6600;51.362;6.686;2023-07-20T00:19:22;100944.53;;;18.30;94.33
13068;BME280;6600;51.362;6.686;2023-07-20T00:21:47;100942.34;;;18.27;94.55
13068;BME280;6600;51.362;6.686;2023-07-20T00:24:13;100937.84;;;18.11;94.85
13068;BME280;6600;51.362;6.686;2023-07-20T00:26:38;100934.31;;;18.10;94.79
13068;BME280;6600;51.362;6.686;2023-07-20T00:29:03;100941.31;;;18.01;95.43
13068;BME280;6600;51.362;6.686;2023-07-20T00:31:29;100936.72;;;18.02;95.36
13068;BME280;6600;51.362;6.686;2023-07-20T00:33:54;100942.13;;;18.02;95.33
13068;BME280;6600;51.362;6.686;2023-07-20T00:36:20;100933.22;;;18.06;95.24
13068;BME280;6600;51.362;6.686;2023-07-20T00:38:45;100936.19;;;18.05;95.74
13068;BME280;6600;51.362;6.686;2023-07-20T00:41:10;100934.53;;;18.04;95.82
13068;BME280;6600;51.362;6.686;2023-07-20T00:43:36;100936.47;;;18.08;95.88
13068;BME280;6600;51.362;6.686;2023-07-20T00:46:01;100941.38;;;18.11;96.03
13068;BME280;6600;51.362;6.686;2023-07-20T00:48:29;100935.97;;;18.11;95.95
13068;BME280;6600;51.362;6.686;2023-07-20T00:50:54;100939.22;;;18.13;95.72
13068;BME280;6600;51.362;6.686;2023-07-20T00:53:20;100936.00;;;18.16;95.73
13068;BME280;6600;51.362;6.686;2023-07-20T00:55:46;100942.28;;;18.22;95.89
13068;BME280;6600;51.362;6.686;2023-07-20T00:58:12;100953.13;;;18.22;95.97
13068;BME280;6600;51.362;6.686;2023-07-20T01:00:37;100956.91;;;18.21;96.46
13068;BME280;6600;51.362;6.686;2023-07-20T01:03:02;100942.34;;;18.27;99.99
13068;BME280;6600;51.362;6.686;2023-07-20T01:05:40;100944.47;;;18.25;100.00
13068;BME280;6600;51.362;6.686;2023-07-20T01:08:17;100938.13;;;18.09;100.00
13068;BME280;6600;51.362;6.686;2023-07-20T01:13:20;100947.16;;;17.88;100.00
13068;BME280;6600;51.362;6.686;2023-07-20T01:15:50;100936.03;;;17.85;100.00
13068;BME280;6600;51.362;6.686;2023-07-20T01:18:16;100945.75;;;17.81;100.00
13068;BME280;6600;51.362;6.686;2023-07-20T01:20:43;100944.09;;;17.80;100.00
13068;BME280;6600;51.362;6.686;2023-07-20T01:23:34;100951.78;;;17.88;100.00
13068;BME280;6600;51.362;6.686;2023-07-20T01:26:48;100956.06;;;17.84;100.00
13068;BME280;6600;51.362;6.686;2023-07-20T01:31:39;100934.28;;;17.74;100.00
13068;BME280;6600;51.362;6.686;2023-07-20T01:34:08;100937.00;;;17.74;100.00
13068;BME280;6600;51.362;6.686;2023-07-20T01:36:38;100937.81;;;17.74;100.00
13068;BME280;6600;51.362;6.686;2023-07-20T01:39:04;100932.66;;;17.73;100.00
13068;BME280;6600;51.362;6.686;2023-07-20T01:41:30;100933.69;;;17.66;100.00
13068;BME280;6600;51.362;6.686;2023-07-20T01:43:59;100931.25;;;17.65;100.00
13068;BME280;6600;51.362;6.686;2023-07-20T01:46:24;100926.50;;;17.55;100.00
13068;BME280;6600;51.362;6.686;2023-07-20T01:48:50;100925.13;;;17.53;100.00
13068;BME280;6600;51.362;6.686;2023-07-20T01:51:16;100933.00;;;17.54;100.00
13068;BME280;6600;51.362;6.686;2023-07-20T01:53:42;100937.84;;;17.52;100.00
13068;BME280;6600;51.362;6.686;2023-07-20T01:56:08;100933.75;;;17.50;100.00
13068;BME280;6600;51.362;6.686;2023-07-20T01:58:33;100937.53;;;17.49;100.00
13068;BME280;6600;51.362;6.686;2023-07-20T02:00:58;100937.75;;;17.42;100.00
13068;BME280;6600;51.362;6.686;2023-07-20T02:03:24;100942.84;;;17.39;100.00
13068;BME280;6600;51.362;6.686;2023-07-20T02:05:51;100937.13;;;17.35;100.00
13068;BME280;6600;51.362;6.686;2023-07-20T02:08:17;100933.47;;;17.25;100.00
13068;BME280;6600;51.362;6.686;2023-07-20T02:10:45;100930.56;;;17.31;100.00
13068;BME280;6600;51.362;6.686;2023-07-20T02:13:11;100927.19;;;17.19;100.00
13068;BME280;6600;51.362;6.686;2023-07-20T02:15:36;100931.47;;;17.15;100.00
13068;BME280;6600;51.362;6.686;2023-07-20T02:18:01;100926.06;;;17.15;100.00
13068;BME280;6600;51.362;6.686;2023-07-20T02:20:28;100941.19;;;17.11;100.00
13068;BME280;6600;51.362;6.686;2023-07-20T02:22:53;100935.72;;;17.06;100.00
13068;BME280;6600;51.362;6.686;2023-07-20T02:25:19;100937.91;;;17.09;100.00
13068;BME280;6600;51.362;6.686;2023-07-20T02:27:44;100938.16;;;17.07;100.00
13068;BME280;6600;51.362;6.686;2023-07-20T02:30:10;100933.63;;;17.13;100.00
13068;BME280;6600;51.362;6.686;2023-07-20T02:32:36;100933.16;;;17.21;100.00
13068;BME280;6600;51.362;6.686;2023-07-20T02:35:02;100936.91;;;17.15;100.00
13068;BME280;6600;51.362;6.686;2023-07-20T02:37:28;100935.13;;;17.04;100.00
13068;BME280;6600;51.362;6.686;2023-07-20T02:39:54;100937.91;;;17.09;100.00
13068;BME280;6600;51.362;6.686;2023-07-20T02:42:19;100935.66;;;17.01;100.00
13068;BME280;6600;51.362;6.686;2023-07-20T02:44:47;100942.72;;;17.02;100.00
13068;BME280;6600;51.362;6.686;2023-07-20T02:47:13;100950.41;;;17.10;100.00
13068;BME280;6600;51.362;6.686;2023-07-20T02:49:38;100943.38;;;17.14;100.00
13068;BME280;6600;51.362;6.686;2023-07-20T02:52:04;100943.34;;;17.09;100.00
13068;BME280;6600;51.362;6.686;2023-07-20T02:54:30;100943.03;;;17.05;100.00
13068;BME280;6600;51.362;6.686;2023-07-20T02:56:55;100944.28;;;16.98;100.00
13068;BME280;6600;51.362;6.686;2023-07-20T02:59:21;100953.56;;;17.07;100.00
13068;BME280;6600;51.362;6.686;2023-07-20T03:01:46;100950.56;;;17.03;100.00
13068;BME280;6600;51.362;6.686;2023-07-20T03:04:12;100961.69;;;17.07;100.00
13068;BME280;6600;51.362;6.686;2023-07-20T03:06:37;100960.00;;;17.01;100.00
13068;BME280;6600;51.362;6.686;2023-07-20T03:09:03;100957.88;;;17.03;100.00
13068;BME280;6600;51.362;6.686;2023-07-20T03:11:29;100961.69;;;17.07;100.00
13068;BME280;6600;51.362;6.686;2023-07-20T03:13:54;100967.63;;;17.04;100.00
13068;BME280;6600;51.362;6.686;2023-07-20T03:16:20;100972.06;;;17.10;100.00
13068;BME280;6600;51.362;6.686;2023-07-20T03:18:46;100967.13;;;17.07;100.00
13068;BME280;6600;51.362;6.686;2023-07-20T03:21:11;100962.22;;;17.04;100.00
13068;BME280;6600;51.362;6.686;2023-07-20T03:23:37;100962.72;;;17.01;100.00
13068;BME280;6600;51.362;6.686;2023-07-20T03:26:02;100961.66;;;17.02;100.00
13068;BME280;6600;51.362;6.686;2023-07-20T03:28:28;100961.03;;;16.95;100.00
13068;BME280;6600;51.362;6.686;2023-07-20T03:30:54;100966.63;;;16.88;100.00
13068;BME280;6600;51.362;6.686;2023-07-20T03:33:27;100963.66;;;16.90;100.00
13068;BME280;6600;51.362;6.686;2023-07-20T03:35:53;100959.84;;;16.86;100.00
13068;BME280;6600;51.362;6.686;2023-07-20T03:38:19;100965.16;;;16.81;100.00
13068;BME280;6600;51.362;6.686;2023-07-20T03:43:16;100972.13;;;16.77;100.00
13068;BME280;6600;51.362;6.686;2023-07-20T03:45:42;100971.31;;;16.76;100.00
13068;BME280;6600;51.362;6.686;2023-07-20T03:48:07;100974.84;;;16.77;100.00
13068;BME280;6600;51.362;6.686;2023-07-20T03:50:33;100975.13;;;16.75;100.00
13068;BME280;6600;51.362;6.686;2023-07-20T03:52:58;100970.81;;;16.79;100.00
13068;BME280;6600;51.362;6.686;2023-07-20T03:55:24;100981.41;;;16.81;100.00
13068;BME280;6600;51.362;6.686;2023-07-20T03:57:49;100979.84;;;16.85;100.00
13068;BME280;6600;51.362;6.686;2023-07-20T04:00:16;100978.28;;;16.89;100.00
13068;BME280;6600;51.362;6.686;2023-07-20T04:02:42;100987.69;;;16.86;100.00
13068;BME280;6600;51.362;6.686;2023-07-20T04:05:07;100993.41;;;16.90;100.00
13068;BME280;6600;51.362;6.686;2023-07-20T04:07:33;100991.31;;;16.92;100.00
13068;BME280;6600;51.362;6.686;2023-07-20T04:09:58;100985.94;;;16.97;100.00
13068;BME280;6600;51.362;6.686;2023-07-20T04:12:24;100993.56;;;17.00;100.00
13068;BME280;6600;51.362;6.686;2023-07-20T04:14:49;100998.28;;;16.88;100.00
13068;BME280;6600;51.362;6.686;2023-07-20T04:17:14;100988.84;;;16.90;100.00
13068;BME280;6600;51.362;6.686;2023-07-20T04:19:39;100987.47;;;16.88;100.00
13068;BME280;6600;51.362;6.686;2023-07-20T04:22:05;100993.41;;;16.90;100.00
13068;BME280;6600;51.362;6.686;2023-07-20T04:24:30;100984.88;;;16.98;100.00
13068;BME280;6600;51.362;6.686;2023-07-20T04:26:56;100992.50;;;17.01;100.00
13068;BME280;6600;51.362;6.686;2023-07-20T04:29:21;100991.47;;;17.07;100.00
13068;BME280;6600;51.362;6.686;2023-07-20T04:31:46;100995.31;;;17.11;100.00
13068;BME280;6600;51.362;6.686;2023-07-20T04:34:11;100999.28;;;17.03;100.00
13068;BME280;6600;51.362;6.686;2023-07-20T04:36:37;101007.31;;;17.15;100.00
13068;BME280;6600;51.362;6.686;2023-07-20T04:39:03;101004.53;;;17.10;100.00
13068;BME280;6600;51.362;6.686;2023-07-20T04:41:28;101004.03;;;17.13;100.00
13068;BME280;6600;51.362;6.686;2023-07-20T04:43:53;101010.09;;;17.20;100.00
13068;BME280;6600;51.362;6.686;2023-07-20T04:46:18;101014.50;;;17.26;100.00
13068;BME280;6600;51.362;6.686;2023-07-20T04:48:44;101017.25;;;17.31;100.00
13068;BME280;6600;51.362;6.686;2023-07-20T04:51:09;101020.78;;;17.32;100.00
13068;BME280;6600;51.362;6.686;2023-07-20T04:53:35;101012.97;;;17.35;100.00
13068;BME280;6600;51.362;6.686;2023-07-20T04:56:00;101020.66;;;17.43;100.00
13068;BME280;6600;51.362;6.686;2023-07-20T04:58:26;101015.34;;;17.53;100.00
13068;BME280;6600;51.362;6.686;2023-07-20T05:00:51;101016.00;;;17.60;100.00
13068;BME280;6600;51.362;6.686;2023-07-20T05:03:17;101010.38;;;17.67;100.00
13068;BME280;6600;51.362;6.686;2023-07-20T05:05:43;101021.13;;;17.57;100.00
13068;BME280;6600;51.362;6.686;2023-07-20T05:08:08;101026.19;;;17.53;100.00
13068;BME280;6600;51.362;6.686;2023-07-20T05:10:34;101025.56;;;17.46;100.00
13068;BME280;6600;51.362;6.686;2023-07-20T05:13:00;101027.13;;;17.42;100.00
13068;BME280;6600;51.362;6.686;2023-07-20T05:15:25;101025.94;;;17.33;100.00
13068;BME280;6600;51.362;6.686;2023-07-20T05:17:51;101030.22;;;17.29;100.00
13068;BME280;6600;51.362;6.686;2023-07-20T05:20:16;101027.25;;;17.31;100.00
13068;BME280;6600;51.362;6.686;2023-07-20T05:22:42;101023.25;;;17.33;100.00
13068;BME280;6600;51.362;6.686;2023-07-20T05:25:09;101030.03;;;17.36;100.00
13068;BME280;6600;51.362;6.686;2023-07-20T05:27:36;101031.38;;;17.33;100.00
13068;BME280;6600;51.362;6.686;2023-07-20T05:30:02;101035.25;;;17.42;100.00
13068;BME280;6600;51.362;6.686;2023-07-20T05:32:28;101024.75;;;17.46;100.00
13068;BME280;6600;51.362;6.686;2023-07-20T05:34:54;101030.63;;;17.59;100.00
13068;BME280;6600;51.362;6.686;2023-07-20T05:37:20;101026.63;;;17.67;100.00
13068;BME280;6600;51.362;6.686;2023-07-20T05:39:45;101029.56;;;17.60;100.00
13068;BME280;6600;51.362;6.686;2023-07-20T05:42:10;101030.19;;;17.67;100.00
13068;BME280;6600;51.362;6.686;2023-07-20T05:44:35;101039.44;;;17.72;100.00
13068;BME280;6600;51.362;6.686;2023-07-20T05:47:01;101035.63;;;17.73;100.00
13068;BME280;6600;51.362;6.686;2023-07-20T05:49:28;101038.66;;;17.76;100.00
13068;BME280;6600;51.362;6.686;2023-07-20T05:51:54;101039.59;;;17.87;100.00
13068;BME280;6600;51.362;6.686;2023-07-20T05:54:21;101035.84;;;18.20;100.00
13068;BME280;6600;51.362;6.686;2023-07-20T05:56:46;101036.31;;;18.43;100.00
13068;BME280;6600;51.362;6.686;2023-07-20T05:59:12;101041.91;;;18.63;100.00
13068;BME280;6600;51.362;6.686;2023-07-20T06:01:37;101044.94;;;18.67;100.00
13068;BME280;6600;51.362;6.686;2023-07-20T06:04:02;101051.09;;;18.94;99.71
13068;BME280;6600;51.362;6.686;2023-07-20T06:06:28;101054.09;;;18.98;98.86
13068;BME280;6600;51.362;6.686;2023-07-20T06:08:53;101046.47;;;18.95;98.55
13068;BME280;6600;51.362;6.686;2023-07-20T06:11:19;101054.25;;;19.28;97.78
13068;BME280;6600;51.362;6.686;2023-07-20T06:13:45;101055.44;;;19.42;95.11
13068;BME280;6600;51.362;6.686;2023-07-20T06:16:10;101060.94;;;19.62;94.16
13068;BME280;6600;51.362;6.686;2023-07-20T06:18:35;101061.56;;;19.90;92.61
13068;BME280;6600;51.362;6.686;2023-07-20T06:21:01;101063.72;;;19.78;91.08
13068;BME280;6600;51.362;6.686;2023-07-20T06:23:26;101059.66;;;19.85;90.11
13068;BME280;6600;51.362;6.686;2023-07-20T06:25:52;101069.72;;;20.00;89.60
13068;BME280;6600;51.362;6.686;2023-07-20T06:28:17;101067.22;;;19.73;90.83
13068;BME280;6600;51.362;6.686;2023-07-20T06:30:43;101069.06;;;19.47;91.34
13068;BME280;6600;51.362;6.686;2023-07-20T06:33:08;101067.50;;;18.73;92.29
13068;BME280;6600;51.362;6.686;2023-07-20T06:35:34;101070.31;;;18.24;94.24
13068;BME280;6600;51.362;6.686;2023-07-20T06:38:01;101063.56;;;18.27;95.16
13068;BME280;6600;51.362;6.686;2023-07-20T06:40:26;101068.31;;;18.09;96.18
13068;BME280;6600;51.362;6.686;2023-07-20T06:42:52;101067.47;;;18.09;96.36
13068;BME280;6600;51.362;6.686;2023-07-20T06:45:17;101067.19;;;18.37;96.44
13068;BME280;6600;51.362;6.686;2023-07-20T06:47:42;101066.53;;;18.52;95.27
13068;BME280;6600;51.362;6.686;2023-07-20T06:50:09;101070.47;;;18.39;95.73
13068;BME280;6600;51.362;6.686;2023-07-20T06:52:35;101059.25;;;18.57;95.49
13068;BME280;6600;51.362;6.686;2023-07-20T06:55:00;101070.47;;;18.71;95.38
13068;BME280;6600;51.362;6.686;2023-07-20T06:57:26;101073.09;;;18.29;95.19
13068;BME280;6600;51.362;6.686;2023-07-20T06:59:51;101072.16;;;18.18;96.04
13068;BME280;6600;51.362;6.686;2023-07-20T07:02:17;101071.03;;;18.14;95.79
13068;BME280;6600;51.362;6.686;2023-07-20T07:04:42;101074.63;;;18.20;96.83
13068;BME280;6600;51.362;6.686;2023-07-20T07:07:08;101078.09;;;18.42;96.16
13068;BME280;6600;51.362;6.686;2023-07-20T07:09:35;101081.56;;;18.64;95.66
13068;BME280;6600;51.362;6.686;2023-07-20T07:12:00;101078.28;;;18.99;94.71
13068;BME280;6600;51.362;6.686;2023-07-20T07:14:25;101079.13;;;19.10;92.35
13068;BME280;6600;51.362;6.686;2023-07-20T07:16:51;101081.47;;;19.38;91.50
13068;BME280;6600;51.362;6.686;2023-07-20T07:19:16;101086.41;;;19.41;90.82
13068;BME280;6600;51.362;6.686;2023-07-20T07:21:41;101092.72;;;19.10;90.89
13068;BME280;6600;51.362;6.686;2023-07-20T07:24:07;101093.13;;;18.87;92.09
13068;BME280;6600;51.362;6.686;2023-07-20T07:26:33;101087.28;;;18.68;92.61
13068;BME280;6600;51.362;6.686;2023-07-20T07:28:58;101094.00;;;18.60;93.19
13068;BME280;6600;51.362;6.686;2023-07-20T07:31:29;101092.50;;;18.75;92.96
13068;BME280;6600;51.362;6.686;2023-07-20T07:33:54;101095.16;;;18.70;91.15
13068;BME280;6600;51.362;6.686;2023-07-20T07:36:20;101100.66;;;18.80;90.06
13068;BME280;6600;51.362;6.686;2023-07-20T07:38:45;101110.22;;;18.82;91.18
13068;BME280;6600;51.362;6.686;2023-07-20T07:41:10;101093.16;;;18.92;91.51
13068;BME280;6600;51.362;6.686;2023-07-20T07:43:35;101101.38;;;19.07;90.80
13068;BME280;6600;51.362;6.686;2023-07-20T07:46:01;101091.88;;;19.04;89.97
13068;BME280;6600;51.362;6.686;2023-07-20T07:48:27;101104.69;;;19.09;89.89
13068;BME280;6600;51.362;6.686;2023-07-20T07:50:53;101110.22;;;19.29;90.41
13068;BME280;6600;51.362;6.686;2023-07-20T07:53:19;101114.31;;;19.32;89.92
13068;BME280;6600;51.362;6.686;2023-07-20T07:55:47;101114.69;;;19.45;90.30
13068;BME280;6600;51.362;6.686;2023-07-20T07:58:12;101108.28;;;19.72;87.10
13068;BME280;6600;51.362;6.686;2023-07-20T08:00:38;101109.44;;;19.86;84.64
13068;BME280;6600;51.362;6.686;2023-07-20T08:03:05;101119.81;;;20.09;84.76
13068;BME280;6600;51.362;6.686;2023-07-20T08:05:31;101116.09;;;20.30;83.98
13068;BME280;6600;51.362;6.686;2023-07-20T08:07:56;101123.72;;;20.74;81.97
13068;BME280;6600;51.362;6.686;2023-07-20T08:10:21;101124.81;;;21.03;80.48
13068;BME280;6600;51.362;6.686;2023-07-20T08:12:47;101123.47;;;20.85;80.84
13068;BME280;6600;51.362;6.686;2023-07-20T08:15:12;101116.09;;;20.71;82.02
13068;BME280;6600;51.362;6.686;2023-07-20T08:17:39;101120.97;;;20.28;81.85
13068;BME280;6600;51.362;6.686;2023-07-20T08:20:05;101126.81;;;19.90;83.33
13068;BME280;6600;51.362;6.686;2023-07-20T08:22:31;101130.00;;;19.61;82.82
13068;BME280;6600;51.362;6.686;2023-07-20T08:24:56;101122.88;;;19.50;83.11
13068;BME280;6600;51.362;6.686;2023-07-20T08:27:22;101136.63;;;19.91;83.46
13068;BME280;6600;51.362;6.686;2023-07-20T08:29:47;101129.63;;;20.15;82.13
13068;BME280;6600;51.362;6.686;2023-07-20T08:32:13;101130.25;;;20.42;80.04
13068;BME280;6600;51.362;6.686;2023-07-20T08:34:39;101123.75;;;20.69;78.94
13068;BME280;6600;51.362;6.686;2023-07-20T08:37:05;101134.31;;;21.00;78.06
13068;BME280;6600;51.362;6.686;2023-07-20T08:39:30;101135.69;;;21.23;78.08
13068;BME280;6600;51.362;6.686;2023-07-20T08:41:57;101133.50;;;21.25;76.79
13068;BME280;6600;51.362;6.686;2023-07-20T08:44:25;101140.22;;;21.63;78.09
13068;BME280;6600;51.362;6.686;2023-07-20T08:46:51;101136.69;;;21.57;75.57
13068;BME280;6600;51.362;6.686;2023-07-20T08:49:17;101143.72;;;21.79;76.39
13068;BME280;6600;51.362;6.686;2023-07-20T08:51:45;101139.91;;;21.70;75.63
13068;BME280;6600;51.362;6.686;2023-07-20T08:54:12;101134.00;;;21.47;76.69
13068;BME280;6600;51.362;6.686;2023-07-20T08:56:39;101143.59;;;21.25;77.00
13068;BME280;6600;51.362;6.686;2023-07-20T08:59:06;101140.34;;;20.82;78.25
13068;BME280;6600;51.362;6.686;2023-07-20T09:01:34;101140.63;;;20.50;78.29
13068;BME280;6600;51.362;6.686;2023-07-20T09:04:00;101142.22;;;20.46;78.93
13068;BME280;6600;51.362;6.686;2023-07-20T09:06:26;101138.44;;;20.78;78.16
13068;BME280;6600;51.362;6.686;2023-07-20T09:08:51;101131.59;;;21.21;75.79
13068;BME280;6600;51.362;6.686;2023-07-20T09:11:17;101131.84;;;21.44;76.24
13068;BME280;6600;51.362;6.686;2023-07-20T09:13:43;101126.78;;;21.82;75.73
13068;BME280;6600;51.362;6.686;2023-07-20T09:16:09;101129.91;;;22.14;74.92
13068;BME280;6600;51.362;6.686;2023-07-20T09:18:38;101135.34;;;22.14;74.22
13068;BME280;6600;51.362;6.686;2023-07-20T09:21:05;101132.78;;;22.33;72.35
13068;BME280;6600;51.362;6.686;2023-07-20T09:23:35;101127.00;;;22.39;72.21
13068;BME280;6600;51.362;6.686;2023-07-20T09:26:20;101129.28;;;22.27;69.96
13068;BME280;6600;51.362;6.686;2023-07-20T09:28:50;101128.47;;;22.27;72.09
13068;BME280;6600;51.362;6.686;2023-07-20T09:31:20;101131.66;;;21.95;69.78
13068;BME280;6600;51.362;6.686;2023-07-20T09:33:47;101135.00;;;21.66;71.02
13068;BME280;6600;51.362;6.686;2023-07-20T09:36:13;101123.13;;;21.32;70.52
13068;BME280;6600;51.362;6.686;2023-07-20T09:38:41;101123.50;;;21.80;72.19
13068;BME280;6600;51.362;6.686;2023-07-20T09:41:07;101123.25;;;22.30;72.12
13068;BME280;6600;51.362;6.686;2023-07-20T09:43:34;101115.88;;;22.70;68.90
13068;BME280;6600;51.362;6.686;2023-07-20T09:45:59;101120.25;;;22.71;68.35
13068;BME280;6600;51.362;6.686;2023-07-20T09:48:25;101119.09;;;21.94;70.13
13068;BME280;6600;51.362;6.686;2023-07-20T09:50:53;101124.72;;;21.48;70.25
13068;BME280;6600;51.362;6.686;2023-07-20T09:53:19;101123.91;;;21.48;71.27
13068;BME280;6600;51.362;6.686;2023-07-20T09:55:46;101126.88;;;21.61;70.80
13068;BME280;6600;51.362;6.686;2023-07-20T09:58:12;101118.72;;;21.46;69.67
13068;BME280;6600;51.362;6.686;2023-07-20T10:00:38;101119.16;;;21.74;70.50
13068;BME280;6600;51.362;6.686;2023-07-20T10:03:05;101111.03;;;22.17;68.49
13068;BME280;6600;51.362;6.686;2023-07-20T10:05:36;101106.50;;;22.42;66.66
13068;BME280;6600;51.362;6.686;2023-07-20T10:08:04;101113.03;;;22.46;65.16
13068;BME280;6600;51.362;6.686;2023-07-20T10:10:33;101112.03;;;22.71;64.59
13068;BME280;6600;51.362;6.686;2023-07-20T10:13:00;101119.44;;;22.65;63.43
13068;BME280;6600;51.362;6.686;2023-07-20T10:15:45;101117.66;;;22.50;65.21
13068;BME280;6600;51.362;6.686;2023-07-20T10:18:18;101119.16;;;22.28;65.67
13068;BME280;6600;51.362;6.686;2023-07-20T10:20:49;101122.25;;;22.16;66.85
13068;BME280;6600;51.362;6.686;2023-07-20T10:23:17;101113.63;;;21.94;67.17
13068;BME280;6600;51.362;6.686;2023-07-20T10:25:42;101113.44;;;22.24;66.54
13068;BME280;6600;51.362;6.686;2023-07-20T10:28:10;101108.97;;;22.38;66.04
13068;BME280;6600;51.362;6.686;2023-07-20T10:30:36;101106.00;;;22.74;63.21
13068;BME280;6600;51.362;6.686;2023-07-20T10:33:03;101108.28;;;22.61;62.59
13068;BME280;6600;51.362;6.686;2023-07-20T10:35:29;101100.72;;;23.11;64.08
13068;BME280;6600;51.362;6.686;2023-07-20T10:38:00;101105.19;;;23.54;62.63
13068;BME280;6600;51.362;6.686;2023-07-20T10:40:33;101100.41;;;23.41;60.98
13068;BME280;6600;51.362;6.686;2023-07-20T10:43:04;101098.09;;;23.53;61.42
13068;BME280;6600;51.362;6.686;2023-07-20T10:45:53;101094.50;;;23.77;62.31
13068;BME280;6600;51.362;6.686;2023-07-20T10:48:21;101090.44;;;23.93;63.79
13068;BME280;6600;51.362;6.686;2023-07-20T10:53:35;101091.03;;;23.90;61.98
13068;BME280;6600;51.362;6.686;2023-07-20T10:56:14;101082.16;;;23.98;61.10
13068;BME280;6600;51.362;6.686;2023-07-20T10:58:40;101066.78;;;23.64;61.08
13068;BME280;6600;51.362;6.686;2023-07-20T11:01:07;101079.25;;;24.13;61.50
13068;BME280;6600;51.362;6.686;2023-07-20T11:03:35;101070.03;;;23.85;60.04
13068;BME280;6600;51.362;6.686;2023-07-20T11:08:48;101070.19;;;23.94;59.39
13068;BME280;6600;51.362;6.686;2023-07-20T11:11:27;101067.75;;;23.92;58.70
13068;BME280;6600;51.362;6.686;2023-07-20T11:14:02;101077.28;;;24.32;57.45
13068;BME280;6600;51.362;6.686;2023-07-20T11:16:34;101077.56;;;24.49;56.86
13068;BME280;6600;51.362;6.686;2023-07-20T11:19:00;101075.09;;;24.48;57.19
13068;BME280;6600;51.362;6.686;2023-07-20T11:21:25;101064.28;;;24.24;58.09
13068;BME280;6600;51.362;6.686;2023-07-20T11:23:54;101062.41;;;24.01;59.79
13068;BME280;6600;51.362;6.686;2023-07-20T11:26:20;101061.63;;;24.19;60.04
13068;BME280;6600;51.362;6.686;2023-07-20T11:28:51;101066.09;;;24.10;58.66
13068;BME280;6600;51.362;6.686;2023-07-20T11:31:18;101063.22;;;23.83;56.52
13068;BME280;6600;51.362;6.686;2023-07-20T11:33:43;101052.63;;;23.76;57.89
13068;BME280;6600;51.362;6.686;2023-07-20T11:36:09;101059.19;;;23.56;58.00
13068;BME280;6600;51.362;6.686;2023-07-20T11:38:34;101051.06;;;23.51;58.80
13068;BME280;6600;51.362;6.686;2023-07-20T11:41:00;101056.50;;;23.28;59.50
13068;BME280;6600;51.362;6.686;2023-07-20T11:43:25;101055.72;;;23.27;60.14
13068;BME280;6600;51.362;6.686;2023-07-20T11:45:51;101048.31;;;23.51;58.94
13068;BME280;6600;51.362;6.686;2023-07-20T11:48:17;101052.41;;;23.73;60.50
13068;BME280;6600;51.362;6.686;2023-07-20T11:50:42;101046.63;;;24.17;59.36
13068;BME280;6600;51.362;6.686;2023-07-20T11:53:08;101044.09;;;24.20;57.07
13068;BME280;6600;51.362;6.686;2023-07-20T11:55:34;101041.56;;;24.24;58.69
13068;BME280;6600;51.362;6.686;2023-07-20T11:58:03;101043.56;;;24.18;57.60
13068;BME280;6600;51.362;6.686;2023-07-20T12:00:28;101044.72;;;24.12;56.97
13068;BME280;6600;51.362;6.686;2023-07-20T12:02:54;101034.03;;;23.78;57.50
13068;BME280;6600;51.362;6.686;2023-07-20T12:05:22;101043.25;;;23.63;57.73
13068;BME280;6600;51.362;6.686;2023-07-20T12:07:47;101031.75;;;23.43;57.69
13068;BME280;6600;51.362;6.686;2023-07-20T12:10:15;101029.41;;;23.31;58.44
13068;BME280;6600;51.362;6.686;2023-07-20T12:12:42;101045.47;;;23.14;59.07
13068;BME280;6600;51.362;6.686;2023-07-20T12:15:20;101034.19;;;22.97;57.73
13068;BME280;6600;51.362;6.686;2023-07-20T12:17:49;101042.34;;;23.02;58.29
13068;BME280;6600;51.362;6.686;2023-07-20T12:20:45;101049.78;;;23.20;56.88
13068;BME280;6600;51.362;6.686;2023-07-20T12:23:12;101037.44;;;23.23;57.50
13068;BME280;6600;51.362;6.686;2023-07-20T12:25:45;101038.91;;;23.15;57.55
13068;BME280;6600;51.362;6.686;2023-07-20T12:28:15;101038.28;;;23.23;57.92
13068;BME280;6600;51.362;6.686;2023-07-20T12:30:43;101036.34;;;23.24;57.99
13068;BME280;6600;51.362;6.686;2023-07-20T12:33:09;101036.50;;;23.32;59.70
13068;BME280;6600;51.362;6.686;2023-07-20T12:35:35;101032.81;;;23.23;57.31
13068;BME280;6600;51.362;6.686;2023-07-20T12:38:01;101028.25;;;23.37;56.42
13068;BME280;6600;51.362;6.686;2023-07-20T12:40:26;101031.41;;;23.49;57.12
13068;BME280;6600;51.362;6.686;2023-07-20T12:42:52;101029.34;;;23.60;56.59
13068;BME280;6600;51.362;6.686;2023-07-20T12:45:17;101031.13;;;23.70;56.17
13068;BME280;6600;51.362;6.686;2023-07-20T12:47:43;101036.44;;;23.80;56.43
13068;BME280;6600;51.362;6.686;2023-07-20T12:50:12;101028.09;;;24.08;56.37
13068;BME280;6600;51.362;6.686;2023-07-20T12:52:38;101031.03;;;24.12;55.47
13068;BME280;6600;51.362;6.686;2023-07-20T12:55:08;101033.22;;;24.15;54.75
13068;BME280;6600;51.362;6.686;2023-07-20T12:57:35;101029.06;;;23.99;55.56
13068;BME280;6600;51.362;6.686;2023-07-20T13:00:01;101030.22;;;23.93;56.61
13068;BME280;6600;51.362;6.686;2023-07-20T13:02:29;101027.66;;;23.64;56.33
13068;BME280;6600;51.362;6.686;2023-07-20T13:04:54;101031.47;;;23.63;56.61
13068;BME280;6600;51.362;6.686;2023-07-20T13:07:29;101026.38;;;23.56;55.60
13068;BME280;6600;51.362;6.686;2023-07-20T13:09:55;101028.16;;;23.24;56.11